This is the latest recevied weather packets stored in our database for station/object W6SNO-1. If no packets are shown the sender has not sent any weather packets the latest 10 day(s).
| Time | Temp. | Humidity | Pressure | Rain* | Wind** | Luminosity | Snow |
|---|---|---|---|---|---|---|---|
| 1787761289 | 17.78° C | 81% | 1016.7 hPa | 0 mm | - | 41 W/m² | - |
| 1787760988 | 17.78° C | 82% | 1016.4 hPa | 0 mm | - | 39 W/m² | - |
| 1787760686 | 17.22° C | 82% | 1016.6 hPa | 0 mm | - | 38 W/m² | - |
| 1787760381 | 17.22° C | 83% | 1016.6 hPa | 0 mm | - | 38 W/m² | - |
| 1787760076 | 16.67° C | 84% | 1016.8 hPa | 0 mm | - | 37 W/m² | - |
| 1787759773 | 16.67° C | 86% | 1016.5 hPa | 0 mm | - | 37 W/m² | - |
| 1787759164 | 16.11° C | 88% | 1016.6 hPa | 0 mm | - | 34 W/m² | - |
| 1787758863 | 16.11° C | 88% | 1016.5 hPa | 0 mm | - | 34 W/m² | - |
| 1787755832 | 15° C | 94% | 1016.2 hPa | 0 mm | - | 29 W/m² | - |
| 1787755532 | 15° C | 94% | 1016.3 hPa | 0 mm | - | 29 W/m² | - |
| 1787725799 | 17.22° C | 82% | 1016.8 hPa | 0 mm | - | 0 W/m² | - |
| 1787725495 | 17.22° C | 82% | 1016.7 hPa | 0 mm | - | 0 W/m² | - |
| 1787725195 | 17.22° C | 82% | 1016.8 hPa | 0 mm | - | 0 W/m² | - |
| 1787724890 | 17.78° C | 82% | 1016.7 hPa | 0 mm | - | 0 W/m² | - |
| 1787724585 | 17.78° C | 82% | 1017 hPa | 0 mm | - | 0 W/m² | - |
| 1787724284 | 17.78° C | 81% | 1017 hPa | 0 mm | - | 0 W/m² | - |
| 1787723981 | 17.78° C | 81% | 1016.8 hPa | 0 mm | - | 0 W/m² | - |
| 1787723679 | 17.78° C | 81% | 1017.1 hPa | 0 mm | - | 0 W/m² | - |
| 1787723376 | 17.78° C | 81% | 1017 hPa | 0 mm | - | 0 W/m² | - |
| 1787723070 | 18.33° C | 80% | 1017.1 hPa | 0 mm | - | 0 W/m² | - |
| 1787722759 | 17.78° C | 81% | 1017.1 hPa | 0 mm | - | 0 W/m² | - |
| 1787722455 | 18.33° C | 80% | 1017.2 hPa | 0 mm | - | 0 W/m² | - |
| 1787722154 | 18.33° C | 80% | 1017.3 hPa | 0 mm | - | 0 W/m² | - |
| 1787721851 | 18.33° C | 79% | 1017.3 hPa | 0 mm | - | 0 W/m² | - |
| 1787721547 | 18.33° C | 79% | 1017.1 hPa | 0 mm | - | 0 W/m² | - |
* Rain latest hour (hover to see other rain measurements)
** Current wind speed in m/s (hover to see current wind gust speed)